Time,TemperatureF,DewpointF,PressureIn,WindDirection,WindDirectionDegrees,WindSpeedMPH,WindSpeedGustMPH,Humidity,HourlyPrecipIn,Conditions,Clouds,dailyrainin,SoftwareType,DateUTC
2013-01-26 00:09:00,7.7,5.0,30.01,West,266,1.0,3.0,89,0.00,,,0.00,weatherlink.com 1.10,2013-01-26 05:09:00,
2013-01-26 00:24:00,7.7,5.0,30.01,NNW,342,1.0,3.0,88,0.00,,,0.00,weatherlink.com 1.10,2013-01-26 05:24:00,
2013-01-26 00:39:00,7.7,5.0,30.01,NNW,348,2.0,3.0,89,0.00,,,0.00,weatherlink.com 1.10,2013-01-26 05:39:00,
2013-01-26 00:54:00,7.9,5.0,30.00,NNE,29,1.0,4.0,89,0.00,,,0.00,weatherlink.com 1.10,2013-01-26 05:54:00,
2013-01-26 01:09:00,7.9,5.0,30.00,North,350,1.0,5.0,89,0.00,,,0.00,weatherlink.com 1.10,2013-01-26 06:09:00,
2013-01-26 01:24:00,7.9,5.0,30.00,NNW,342,2.0,5.0,89,0.00,,,0.00,weatherlink.com 1.10,2013-01-26 06:24:00,
2013-01-26 01:40:00,7.8,5.0,30.00,NNW,344,3.0,6.0,89,0.00,,,0.00,weatherlink.com 1.10,2013-01-26 06:40:00,
2013-01-26 01:55:00,7.7,5.0,30.00,North,360,5.0,6.0,89,0.00,,,0.00,weatherlink.com 1.10,2013-01-26 06:55:00,
2013-01-26 02:10:00,7.6,5.0,30.00,North,9,1.0,5.0,90,0.00,,,0.00,weatherlink.com 1.10,2013-01-26 07:10:00,
2013-01-26 02:25:00,7.6,5.0,30.00,NNW,336,5.0,8.0,89,0.00,,,0.00,weatherlink.com 1.10,2013-01-26 07:25:00,
2013-01-26 02:40:00,7.5,5.0,30.00,NW,325,3.0,5.0,89,0.00,,,0.00,weatherlink.com 1.10,2013-01-26 07:40:00,
2013-01-26 02:55:00,7.2,5.0,29.99,ENE,63,2.0,3.0,89,0.00,,,0.00,weatherlink.com 1.10,2013-01-26 07:55:00,
2013-01-26 03:10:00,7.0,4.0,29.99,East,84,3.0,7.0,88,0.00,,,0.00,weatherlink.com 1.10,2013-01-26 08:10:00,
2013-01-26 03:25:00,6.5,4.0,29.98,North,355,4.0,8.0,88,0.00,,,0.00,weatherlink.com 1.10,2013-01-26 08:25:00,
2013-01-26 03:40:00,6.1,4.0,29.98,North,355,1.0,8.0,89,0.00,,,0.00,weatherlink.com 1.10,2013-01-26 08:40:00,
2013-01-26 03:55:00,5.9,3.0,29.98,NNE,28,4.0,8.0,89,0.00,,,0.00,weatherlink.com 1.10,2013-01-26 08:55:00,
2013-01-26 04:10:00,5.7,3.0,29.99,NW,322,6.0,8.0,88,0.00,,,0.00,weatherlink.com 1.10,2013-01-26 09:10:00,
2013-01-26 04:25:00,5.5,3.0,29.99,NW,308,0.0,7.0,89,0.00,,,0.00,weatherlink.com 1.10,2013-01-26 09:25:00,
2013-01-26 04:40:00,5.5,3.0,30.00,NNW,347,5.0,9.0,89,0.00,,,0.00,weatherlink.com 1.10,2013-01-26 09:40:00,
2013-01-26 04:55:00,5.6,3.0,30.00,NW,309,4.0,8.0,89,0.00,,,0.00,weatherlink.com 1.10,2013-01-26 09:55:00,
2013-01-26 05:10:00,5.8,3.0,30.00,North,360,4.0,9.0,89,0.00,,,0.00,weatherlink.com 1.10,2013-01-26 10:10:00,
2013-01-26 05:25:00,5.9,3.0,30.00,North,5,5.0,10.0,89,0.00,,,0.00,weatherlink.com 1.10,2013-01-26 10:25:00,
2013-01-26 05:40:00,5.6,3.0,30.00,North,355,5.0,7.0,89,0.00,,,0.00,weatherlink.com 1.10,2013-01-26 10:40:00,
2013-01-26 05:55:00,5.1,3.0,30.01,ENE,68,0.0,9.0,89,0.00,,,0.00,weatherlink.com 1.10,2013-01-26 10:55:00,
2013-01-26 06:11:00,4.7,2.0,30.02,NNW,334,1.0,8.0,89,0.00,,,0.00,weatherlink.com 1.10,2013-01-26 11:11:00,
2013-01-26 06:26:00,4.4,2.0,30.02,NE,51,1.0,7.0,89,0.00,,,0.00,weatherlink.com 1.10,2013-01-26 11:26:00,
2013-01-26 06:41:00,4.1,2.0,30.03,North,355,2.0,7.0,89,0.00,,,0.00,weatherlink.com 1.10,2013-01-26 11:41:00,
2013-01-26 06:56:00,-999.0,-99.9,30.03,North,-999,-999.0,-999.0,-999,0.00,,,0.00,weatherlink.com 1.10,2013-01-26 11:56:00,
2013-01-26 07:11:00,-999.0,-99.9,30.03,North,-999,-999.0,-999.0,-999,0.00,,,0.00,weatherlink.com 1.10,2013-01-26 12:11:00,
2013-01-26 07:26:00,-999.0,-99.9,30.03,North,-999,-999.0,-999.0,-999,0.00,,,0.00,weatherlink.com 1.10,2013-01-26 12:26:00,
2013-01-26 07:41:00,-999.0,-99.9,30.04,North,-999,-999.0,-999.0,-999,0.00,,,0.00,weatherlink.com 1.10,2013-01-26 12:41:00,
2013-01-26 07:56:00,-999.0,-99.9,30.04,North,-999,-999.0,-999.0,-999,0.00,,,0.00,weatherlink.com 1.10,2013-01-26 12:56:00,
2013-01-26 08:11:00,2.7,0.0,30.05,NNW,329,8.0,8.0,88,0.00,,,0.00,weatherlink.com 1.10,2013-01-26 13:11:00,
2013-01-26 08:26:00,2.9,0.0,30.05,NNW,333,1.0,8.0,88,0.00,,,0.00,weatherlink.com 1.10,2013-01-26 13:26:00,
2013-01-26 08:41:00,3.3,1.0,30.06,North,5,0.0,8.0,88,0.00,,,0.00,weatherlink.com 1.10,2013-01-26 13:41:00,
2013-01-26 08:56:00,3.7,1.0,30.06,NNW,347,5.0,8.0,88,0.00,,,0.00,weatherlink.com 1.10,2013-01-26 13:56:00,
2013-01-26 09:11:00,4.8,2.0,30.07,North,355,4.0,9.0,87,0.00,,,0.00,weatherlink.com 1.10,2013-01-26 14:11:00,
2013-01-26 09:27:00,5.9,2.0,30.08,North,355,1.0,12.0,85,0.00,,,0.00,weatherlink.com 1.10,2013-01-26 14:27:00,
2013-01-26 09:42:00,6.8,2.0,30.08,NNW,343,8.0,15.0,82,0.00,,,0.00,weatherlink.com 1.10,2013-01-26 14:42:00,
2013-01-26 09:57:00,7.7,3.0,30.08,North,5,11.0,14.0,79,0.00,,,0.00,weatherlink.com 1.10,2013-01-26 14:57:00,
2013-01-26 10:12:00,8.6,3.0,30.10,NNW,345,4.0,13.0,76,0.00,,,0.00,weatherlink.com 1.10,2013-01-26 15:12:00,
2013-01-26 10:27:00,9.4,2.0,30.10,North,5,8.0,15.0,72,0.00,,,0.00,weatherlink.com 1.10,2013-01-26 15:27:00,
2013-01-26 10:42:00,10.6,2.0,30.10,NW,317,2.0,12.0,69,0.00,,,0.00,weatherlink.com 1.10,2013-01-26 15:42:00,
2013-01-26 10:57:00,11.3,2.0,30.10,NW,324,5.0,15.0,67,0.00,,,0.00,weatherlink.com 1.10,2013-01-26 15:57:00,
2013-01-26 11:12:00,11.9,2.0,30.10,North,355,5.0,11.0,65,0.00,,,0.00,weatherlink.com 1.10,2013-01-26 16:12:00,
2013-01-26 11:27:00,12.4,2.0,30.10,North,5,4.0,11.0,63,0.00,,,0.00,weatherlink.com 1.10,2013-01-26 16:27:00,
2013-01-26 11:42:00,12.7,2.0,30.09,West,273,5.0,14.0,62,0.00,,,0.00,weatherlink.com 1.10,2013-01-26 16:42:00,
2013-01-26 11:57:00,12.5,2.0,30.09,North,5,11.0,11.0,62,0.00,,,0.00,weatherlink.com 1.10,2013-01-26 16:57:00,
2013-01-26 12:12:00,13.2,2.0,30.09,WNW,301,11.0,15.0,61,0.00,,,0.00,weatherlink.com 1.10,2013-01-26 17:12:00,
2013-01-26 12:27:00,13.2,2.0,30.09,NNW,331,3.0,16.0,61,0.00,,,0.00,weatherlink.com 1.10,2013-01-26 17:27:00,
2013-01-26 12:42:00,13.1,2.0,30.08,North,11,7.0,16.0,60,0.00,,,0.00,weatherlink.com 1.10,2013-01-26 17:42:00,
2013-01-26 12:58:00,13.2,2.0,30.08,West,281,9.0,15.0,60,0.00,,,0.00,weatherlink.com 1.10,2013-01-26 17:58:00,
2013-01-26 13:13:00,13.7,2.0,30.08,West,274,8.0,13.0,59,0.00,,,0.00,weatherlink.com 1.10,2013-01-26 18:13:00,
2013-01-26 13:28:00,13.6,1.0,30.09,NNE,27,10.0,15.0,58,0.00,,,0.00,weatherlink.com 1.10,2013-01-26 18:28:00,
2013-01-26 13:43:00,13.8,2.0,30.09,NE,37,9.0,16.0,59,0.00,,,0.00,weatherlink.com 1.10,2013-01-26 18:43:00,
2013-01-26 13:58:00,13.7,2.0,30.10,SSW,201,7.0,13.0,60,0.00,,,0.00,weatherlink.com 1.10,2013-01-26 18:58:00,
2013-01-26 14:13:00,12.6,1.0,30.11,NNW,348,9.0,17.0,61,0.00,,,0.00,weatherlink.com 1.10,2013-01-26 19:13:00,
2013-01-26 14:28:00,12.1,1.0,30.11,North,5,8.0,20.0,61,0.00,,,0.00,weatherlink.com 1.10,2013-01-26 19:28:00,
2013-01-26 14:43:00,12.8,1.0,30.12,NNE,29,6.0,23.0,60,0.00,,,0.00,weatherlink.com 1.10,2013-01-26 19:43:00,
2013-01-26 14:58:00,13.0,1.0,30.11,NW,323,6.0,22.0,59,0.00,,,0.00,weatherlink.com 1.10,2013-01-26 19:58:00,
2013-01-26 15:13:00,12.5,1.0,30.13,NW,310,5.0,23.0,60,0.00,,,0.00,weatherlink.com 1.10,2013-01-26 20:13:00,
2013-01-26 15:28:00,11.7,1.0,30.13,ENE,57,5.0,21.0,61,0.00,,,0.00,weatherlink.com 1.10,2013-01-26 20:28:00,
2013-01-26 15:43:00,12.2,1.0,30.13,WNW,297,12.0,18.0,60,0.00,,,0.00,weatherlink.com 1.10,2013-01-26 20:43:00,
2013-01-26 15:58:00,12.1,1.0,30.13,North,355,16.0,19.0,61,0.00,,,0.00,weatherlink.com 1.10,2013-01-26 20:58:00,
2013-01-26 16:14:00,11.0,1.0,30.14,North,355,6.0,16.0,63,0.00,,,0.00,weatherlink.com 1.10,2013-01-26 21:14:00,
2013-01-26 16:29:00,10.3,1.0,30.14,NNW,329,7.0,19.0,65,0.00,,,0.00,weatherlink.com 1.10,2013-01-26 21:29:00,
2013-01-26 16:44:00,9.8,0.0,30.14,NNW,342,8.0,23.0,65,0.00,,,0.00,weatherlink.com 1.10,2013-01-26 21:44:00,
2013-01-26 16:59:00,9.6,0.0,30.16,ENE,68,5.0,17.0,65,0.00,,,0.00,weatherlink.com 1.10,2013-01-26 21:59:00,
2013-01-26 17:14:00,9.2,0.0,30.16,NNW,341,7.0,16.0,66,0.00,,,0.00,weatherlink.com 1.10,2013-01-26 22:14:00,
2013-01-26 17:29:00,8.9,0.0,30.17,NE,36,8.0,19.0,67,0.00,,,0.00,weatherlink.com 1.10,2013-01-26 22:29:00,
2013-01-26 17:44:00,8.6,0.0,30.18,NNE,30,9.0,20.0,68,0.00,,,0.00,weatherlink.com 1.10,2013-01-26 22:44:00,
2013-01-26 17:59:00,8.4,0.0,30.18,North,360,8.0,19.0,69,0.00,,,0.00,weatherlink.com 1.10,2013-01-26 22:59:00,
2013-01-26 18:14:00,8.2,1.0,30.19,NNW,348,12.0,21.0,71,0.00,,,0.00,weatherlink.com 1.10,2013-01-26 23:14:00,
2013-01-26 18:29:00,8.0,1.0,30.20,North,355,9.0,18.0,73,0.00,,,0.00,weatherlink.com 1.10,2013-01-26 23:29:00,
2013-01-26 18:44:00,7.6,1.0,30.21,NNW,337,7.0,14.0,74,0.00,,,0.00,weatherlink.com 1.10,2013-01-26 23:44:00,
2013-01-26 18:59:00,7.4,1.0,30.21,NNW,338,3.0,16.0,75,0.00,,,0.00,weatherlink.com 1.10,2013-01-26 23:59:00,
2013-01-26 19:14:00,7.1,1.0,30.21,NNW,344,10.0,17.0,77,0.00,,,0.00,weatherlink.com 1.10,2013-01-27 00:14:00,
2013-01-26 19:29:00,6.8,1.0,30.22,NNW,337,3.0,17.0,78,0.00,,,0.00,weatherlink.com 1.10,2013-01-27 00:29:00,
2013-01-26 19:45:00,6.5,2.0,30.22,NNE,21,8.0,20.0,80,0.00,,,0.00,weatherlink.com 1.10,2013-01-27 00:45:00,
2013-01-26 20:00:00,6.4,2.0,30.22,North,5,10.0,15.0,80,0.00,,,0.00,weatherlink.com 1.10,2013-01-27 01:00:00,
2013-01-26 20:15:00,6.2,2.0,30.22,West,281,4.0,14.0,81,0.00,,,0.00,weatherlink.com 1.10,2013-01-27 01:15:00,
2013-01-26 20:30:00,5.9,2.0,30.23,WSW,258,4.0,11.0,82,0.00,,,0.00,weatherlink.com 1.10,2013-01-27 01:30:00,
2013-01-26 20:45:00,5.7,1.0,30.23,NNW,329,3.0,11.0,82,0.00,,,0.00,weatherlink.com 1.10,2013-01-27 01:45:00,
2013-01-26 21:00:00,5.6,1.0,30.24,North,5,7.0,12.0,82,0.00,,,0.00,weatherlink.com 1.10,2013-01-27 02:00:00,
2013-01-26 21:15:00,5.9,2.0,30.25,NW,305,5.0,15.0,82,0.00,,,0.00,weatherlink.com 1.10,2013-01-27 02:15:00,
2013-01-26 21:30:00,6.1,2.0,30.26,NNE,19,7.0,12.0,82,0.00,,,0.00,weatherlink.com 1.10,2013-01-27 02:30:00,
2013-01-26 21:45:00,6.0,2.0,30.26,NW,317,8.0,14.0,82,0.00,,,0.00,weatherlink.com 1.10,2013-01-27 02:45:00,
2013-01-26 22:00:00,5.5,1.0,30.26,West,271,2.0,10.0,83,0.00,,,0.00,weatherlink.com 1.10,2013-01-27 03:00:00,
2013-01-26 22:15:00,5.2,1.0,30.28,WNW,296,2.0,9.0,84,0.00,,,0.00,weatherlink.com 1.10,2013-01-27 03:15:00,
2013-01-26 22:30:00,5.1,2.0,30.28,North,355,4.0,11.0,85,0.00,,,0.00,weatherlink.com 1.10,2013-01-27 03:30:00,
2013-01-26 22:45:00,4.7,2.0,30.28,ENE,59,4.0,11.0,87,0.00,,,0.00,weatherlink.com 1.10,2013-01-27 03:45:00,
2013-01-26 23:00:00,4.8,2.0,30.29,NW,309,5.0,15.0,88,0.00,,,0.00,weatherlink.com 1.10,2013-01-27 04:00:00,
2013-01-26 23:16:00,5.3,2.0,30.28,NNW,342,6.0,14.0,87,0.00,,,0.00,weatherlink.com 1.10,2013-01-27 04:16:00,
2013-01-26 23:31:00,5.1,2.0,30.29,NNW,327,2.0,10.0,87,0.00,,,0.00,weatherlink.com 1.10,2013-01-27 04:31:00,
2013-01-26 23:46:00,5.3,2.0,30.29,North,355,3.0,12.0,87,0.00,,,0.00,weatherlink.com 1.10,2013-01-27 04:46:00,